Calendario incontri del campionato di serie A2 Femminile, Pool Salvezza, stagione 2018/19


DataEventoOrario/Risultati
2019-02-10 17:00:0710 Febbraio 2019 Sigel Marsala vs Acqua&Sapone V.Group3 - 2
2019-02-10 17:00:2710 Febbraio 2019 Sorelle Ramonda Ipag Montecchio vs Eurospin Ford Sara Pinerolo3 - 1
2019-02-10 17:00:2910 Febbraio 2019 P2P Givova Volley Baronissi vs Canovi Coperture Sassuolo3 - 0
2019-02-10 17:00:4110 Febbraio 2019 Volley Hermaea Olbia vs Cuore di Mamma Cutrofiano1 - 3
2019-02-17 17:00:0417 Febbraio 2019 Acqua&Sapone V.Group vs Sorelle Ramonda Ipag Montecchio3 - 1
2019-02-17 17:00:0817 Febbraio 2019 Canovi Coperture Sassuolo vs Volley Hermaea Olbia3 - 0
2019-02-17 17:00:1417 Febbraio 2019 Cuore di Mamma Cutrofiano vs P2P Givova Volley Baronissi0 - 3
2019-02-17 17:00:5517 Febbraio 2019 Eurospin Ford Sara Pinerolo vs Sigel Marsala2 - 3
2019-02-24 17:00:0624 Febbraio 2019 Canovi Coperture Sassuolo vs Eurospin Ford Sara Pinerolo 17:00:0617:00
2019-02-24 17:00:1124 Febbraio 2019 Cuore di Mamma Cutrofiano vs Acqua&Sapone V.Group 17:00:1117:00
2019-02-24 17:00:2824 Febbraio 2019 P2P Givova Volley Baronissi vs Sigel Marsala 17:00:2817:00
2019-02-24 17:00:3024 Febbraio 2019 Volley Hermaea Olbia vs Sorelle Ramonda Ipag Montecchio 17:00:3017:00
2019-03-03 17:00:023 Marzo 2019 Sigel Marsala vs Volley Hermaea Olbia 17:00:0217:00
2019-03-03 17:00:083 Marzo 2019 Sorelle Ramonda Ipag Montecchio vs P2P Givova Volley Baronissi 17:00:0817:00
2019-03-03 17:00:353 Marzo 2019 Acqua&Sapone V.Group vs Canovi Coperture Sassuolo 17:00:3517:00
2019-03-03 17:00:483 Marzo 2019 Eurospin Ford Sara Pinerolo vs Cuore di Mamma Cutrofiano 17:00:4817:00
2019-03-10 17:00:0310 Marzo 2019 Canovi Coperture Sassuolo vs P2P Givova Volley Baronissi 17:00:0317:00
2019-03-10 17:00:0610 Marzo 2019 Eurospin Ford Sara Pinerolo vs Sorelle Ramonda Ipag Montecchio 17:00:0617:00
2019-03-10 17:00:2310 Marzo 2019 Cuore di Mamma Cutrofiano vs Volley Hermaea Olbia 17:00:2317:00
2019-03-10 17:00:4710 Marzo 2019 Acqua&Sapone V.Group vs Sigel Marsala 17:00:4717:00
2019-03-17 17:00:0217 Marzo 2019 Sigel Marsala vs Eurospin Ford Sara Pinerolo 17:00:0217:00
2019-03-17 17:00:2117 Marzo 2019 P2P Givova Volley Baronissi vs Cuore di Mamma Cutrofiano 17:00:2117:00
2019-03-17 17:00:3217 Marzo 2019 Sorelle Ramonda Ipag Montecchio vs Acqua&Sapone V.Group 17:00:3217:00
2019-03-17 17:00:3717 Marzo 2019 Volley Hermaea Olbia vs Canovi Coperture Sassuolo 17:00:3717:00
2019-03-24 17:00:0324 Marzo 2019 Sigel Marsala vs P2P Givova Volley Baronissi 17:00:0317:00
2019-03-24 17:00:1324 Marzo 2019 Acqua&Sapone V.Group vs Cuore di Mamma Cutrofiano 17:00:1317:00
2019-03-24 17:00:4324 Marzo 2019 Sorelle Ramonda Ipag Montecchio vs Volley Hermaea Olbia 17:00:4317:00
2019-03-24 17:00:5024 Marzo 2019 Eurospin Ford Sara Pinerolo vs Canovi Coperture Sassuolo 17:00:5017:00
2019-03-31 17:00:1931 Marzo 2019 Volley Hermaea Olbia vs Sigel Marsala 17:00:1917:00
2019-03-31 17:00:3031 Marzo 2019 P2P Givova Volley Baronissi vs Sorelle Ramonda Ipag Montecchio 17:00:3017:00
2019-03-31 17:00:4231 Marzo 2019 Canovi Coperture Sassuolo vs Acqua&Sapone V.Group 17:00:4217:00
2019-03-31 17:00:5431 Marzo 2019 Cuore di Mamma Cutrofiano vs Eurospin Ford Sara Pinerolo 17:00:5417:00

Articoli correlati

News

Serie A2: All Inn per il Cuore di Mamma nel match contro Roma!

Siamo solo alla terza giornata della Pool Salvezza di A2, ma per il CUORE DI MAMMA è già tempo di sfide importanti e da non fallire. Domenica al Palacesari, alle ore 17.00, le salentine incroceranno Continua…

News

Serie A2: Cuore di Mamma costretto ad arrendersi, 0-3 con Baronissi!

Nulla da fare per il CUORE DI MAMMA che è costretto ad arrendersi per 0 a 3 al Baronissi in quello che è il DERBY del Sud della Pool Salvezza. Una partita a senso unico, Continua…

News

Serie A2: Per il Cuore di Mamma altro derby del Sud!

In casa CUORE DI MAMMA è attesissimo il debutto casalingo di questa seconda parte di stagione, quella che vede le salentine impegnate nella Pool Salvezza di A2. Il match di apertura ha premiato Vincenti e Continua…

Utilizzando il sito, accetti l'utilizzo dei cookie da parte nostra. maggiori informazioni

Questo sito utilizza i cookie per fornire la migliore esperienza di navigazione possibile. Continuando a utilizzare questo sito senza modificare le impostazioni dei cookie o cliccando su "Accetta" permetti il loro utilizzo.

Chiudi